createdAt,value
2023-01-29T00:03:48.720Z,1.00
2023-01-29T00:06:23.709Z,1.00
2023-01-29T00:13:51.077Z,1.00
2023-01-29T00:18:49.305Z,1.00
2023-01-29T00:21:22.532Z,1.00
2023-01-29T00:23:51.898Z,1.00
2023-01-29T00:26:22.064Z,1.00
2023-01-29T00:28:50.880Z,1.00
2023-01-29T00:31:21.883Z,1.00
2023-01-29T00:33:52.467Z,1.00
2023-01-29T00:36:23.168Z,1.00
2023-01-29T00:38:58.866Z,1.00
2023-01-29T00:41:47.290Z,1.00
2023-01-29T00:44:32.802Z,1.00
2023-01-29T00:47:01.727Z,1.00
2023-01-29T00:49:30.700Z,1.00
2023-01-29T00:52:17.768Z,1.00
2023-01-29T00:54:46.589Z,1.00
2023-01-29T00:57:14.722Z,1.00
2023-01-29T00:59:42.963Z,1.00
2023-01-29T01:02:28.726Z,1.00
2023-01-29T01:07:27.413Z,1.00
2023-01-29T01:12:42.151Z,1.00
2023-01-29T01:15:11.354Z,1.00
2023-01-29T01:17:39.909Z,1.00
2023-01-29T01:20:09.747Z,1.00
2023-01-29T01:22:40.580Z,1.00
2023-01-29T01:25:09.843Z,1.00
2023-01-29T01:30:12.867Z,1.00
2023-01-29T01:32:41.759Z,1.00
2023-01-29T01:35:12.191Z,1.00
2023-01-29T01:37:42.395Z,1.00
2023-01-29T01:40:18.326Z,1.00
2023-01-29T01:42:49.273Z,1.00
2023-01-29T01:45:22.180Z,1.00
2023-01-29T01:47:54.407Z,1.00
2023-01-29T01:50:32.064Z,1.00
2023-01-29T01:53:07.251Z,1.00
2023-01-29T01:55:52.320Z,1.00
2023-01-29T01:58:36.413Z,1.00
2023-01-29T02:01:12.841Z,1.00
2023-01-29T02:04:07.084Z,1.00
2023-01-29T02:06:55.406Z,1.00
2023-01-29T02:09:35.621Z,1.00
2023-01-29T02:12:05.397Z,14.60
2023-01-29T02:14:38.893Z,11.40
2023-01-29T02:17:08.653Z,25.30
2023-01-29T02:20:02.307Z,13.40
2023-01-29T02:22:55.465Z,1.00
2023-01-29T02:25:46.266Z,1.00
2023-01-29T02:28:39.189Z,1.00
2023-01-29T02:31:15.085Z,21.30
2023-01-29T02:34:06.005Z,11.80
2023-01-29T02:36:40.398Z,23.50
2023-01-29T02:39:18.107Z,31.30
2023-01-29T02:41:52.806Z,36.30
2023-01-29T02:44:31.897Z,40.60
2023-01-29T02:47:05.767Z,78.10
2023-01-29T02:49:36.883Z,56.20
2023-01-29T02:52:10.820Z,80.20
2023-01-29T02:54:48.645Z,99.90
2023-01-29T02:57:23.427Z,99.90
2023-01-29T02:59:57.616Z,99.90
2023-01-29T03:02:33.467Z,99.90
2023-01-29T03:05:07.733Z,98.20
2023-01-29T03:07:45.067Z,99.90
2023-01-29T03:10:22.490Z,99.90
2023-01-29T03:12:59.722Z,99.90
2023-01-29T03:15:39.003Z,99.90
2023-01-29T03:18:11.610Z,99.90
2023-01-29T03:20:48.113Z,99.90
2023-01-29T03:23:24.571Z,99.90
2023-01-29T03:26:13.271Z,99.90
2023-01-29T03:29:02.425Z,99.90
2023-01-29T03:31:51.436Z,99.90
2023-01-29T03:34:28.793Z,99.90
2023-01-29T03:37:01.152Z,99.90
2023-01-29T03:39:30.563Z,99.90
2023-01-29T03:42:04.881Z,99.90
2023-01-29T03:44:42.390Z,99.90
2023-01-29T03:47:18.291Z,99.90
2023-01-29T03:49:58.068Z,99.90
2023-01-29T03:52:30.025Z,99.90
2023-01-29T03:55:06.837Z,99.90
2023-01-29T03:57:42.487Z,99.90
2023-01-29T04:00:16.158Z,99.90
2023-01-29T04:02:53.542Z,99.90
2023-01-29T04:05:26.437Z,99.90
2023-01-29T04:07:57.148Z,99.90
2023-01-29T04:10:29.700Z,99.90
2023-01-29T04:13:02.373Z,99.90
2023-01-29T04:15:35.061Z,99.90
2023-01-29T04:18:05.075Z,99.90
2023-01-29T04:23:02.469Z,99.90
2023-01-29T04:25:37.609Z,99.90
2023-01-29T04:28:12.188Z,99.90
2023-01-29T04:30:48.690Z,99.90
2023-01-29T04:33:36.291Z,99.90
2023-01-29T04:36:21.909Z,99.90
2023-01-29T04:39:00.348Z,99.90
2023-01-29T04:41:33.631Z,99.90
2023-01-29T04:44:12.028Z,99.90
2023-01-29T04:46:54.359Z,99.90
2023-01-29T04:49:35.694Z,99.90
2023-01-29T04:52:12.684Z,99.90
2023-01-29T04:54:56.138Z,99.90
2023-01-29T04:57:28.302Z,99.90
2023-01-29T05:00:01.678Z,99.90
2023-01-29T05:02:42.682Z,99.90
2023-01-29T05:05:15.898Z,99.90
2023-01-29T05:07:47.287Z,99.90
2023-01-29T05:10:22.508Z,99.90
2023-01-29T05:13:00.006Z,99.90
2023-01-29T05:15:34.451Z,99.90
2023-01-29T05:20:35.384Z,99.90
2023-01-29T05:23:03.995Z,99.90
2023-01-29T05:25:35.202Z,99.90
2023-01-29T05:28:05.429Z,99.90
2023-01-29T05:30:36.508Z,99.90
2023-01-29T05:33:07.638Z,99.90
2023-01-29T05:35:39.777Z,99.90
2023-01-29T05:40:39.629Z,99.90
2023-01-29T05:43:17.980Z,99.90
2023-01-29T05:45:54.281Z,99.90
2023-01-29T05:50:54.505Z,99.90
2023-01-29T05:53:23.302Z,99.90
2023-01-29T05:55:55.315Z,99.90
2023-01-29T06:23:24.240Z,99.90
2023-01-29T06:30:50.148Z,99.90
2023-01-29T06:33:18.935Z,99.90
2023-01-29T06:35:54.049Z,99.90
2023-01-29T06:38:23.540Z,99.90
2023-01-29T06:40:56.332Z,99.90
2023-01-29T06:43:24.593Z,99.90
2023-01-29T06:45:55.019Z,99.90
2023-01-29T06:53:28.541Z,99.90
2023-01-29T06:55:59.153Z,99.90
2023-01-29T07:01:07.573Z,99.90
2023-01-29T07:03:41.683Z,99.90
2023-01-29T07:08:42.171Z,99.90
2023-01-29T07:13:46.473Z,99.90
2023-01-29T07:16:16.404Z,99.90
2023-01-29T07:18:59.049Z,99.90
2023-01-29T07:31:56.448Z,99.90
2023-01-29T07:39:24.767Z,99.90
2023-01-29T07:41:56.357Z,99.90
2023-01-29T07:44:26.377Z,99.90
2023-01-29T08:14:46.013Z,99.90
2023-01-29T08:22:25.747Z,99.90
2023-01-29T08:27:37.974Z,99.90
2023-01-29T08:30:07.260Z,99.90
2023-01-29T08:35:03.913Z,99.90
2023-01-29T08:42:32.261Z,72.30
2023-01-29T08:45:14.637Z,99.90
2023-01-29T08:47:47.624Z,91.50
2023-01-29T08:50:15.784Z,64.40
2023-01-29T08:52:48.870Z,29.40
2023-01-29T08:55:16.811Z,29.60
2023-01-29T08:57:48.228Z,1.00
2023-01-29T09:00:19.147Z,1.00
2023-01-29T09:02:49.713Z,1.00
2023-01-29T09:05:18.653Z,1.00
2023-01-29T09:07:47.092Z,1.00
2023-01-29T09:10:15.106Z,1.00
2023-01-29T09:12:43.246Z,1.00
2023-01-29T09:15:12.523Z,1.00
2023-01-29T09:17:43.260Z,1.00
2023-01-29T09:20:12.520Z,1.00
2023-01-29T09:22:43.165Z,1.00
2023-01-29T09:25:12.233Z,1.00
2023-01-29T09:27:42.889Z,1.00
2023-01-29T09:30:12.901Z,1.00
2023-01-29T09:32:57.511Z,1.00
2023-01-29T09:37:54.954Z,1.00
2023-01-29T09:40:28.498Z,22.50
2023-01-29T09:43:00.594Z,75.30
2023-01-29T09:45:30.485Z,65.80
2023-01-29T09:48:10.464Z,93.70
2023-01-29T09:50:42.295Z,99.90
2023-01-29T09:53:22.578Z,99.90
2023-01-29T09:55:57.212Z,99.90
2023-01-29T09:58:31.005Z,99.90
2023-01-29T10:01:09.183Z,99.90
2023-01-29T10:04:24.727Z,99.90
2023-01-29T10:07:08.018Z,99.90
2023-01-29T10:10:00.325Z,99.90
2023-01-29T10:12:45.002Z,99.90
2023-01-29T10:15:27.640Z,99.90
2023-01-29T10:18:11.992Z,99.90
2023-01-29T10:21:06.820Z,99.90
2023-01-29T10:23:37.711Z,94.00
2023-01-29T10:26:08.987Z,96.90
2023-01-29T10:28:46.192Z,95.90
2023-01-29T10:31:19.301Z,96.40
2023-01-29T10:34:02.162Z,99.20
2023-01-29T10:36:38.280Z,97.80
2023-01-29T10:39:13.427Z,99.90
2023-01-29T10:42:03.495Z,99.90
2023-01-29T10:44:43.166Z,99.90
2023-01-29T10:47:40.378Z,99.40
2023-01-29T10:50:20.415Z,99.90
2023-01-29T10:53:14.052Z,97.20
2023-01-29T10:55:46.438Z,93.20
2023-01-29T10:58:26.187Z,76.90
2023-01-29T11:00:54.163Z,83.20
2023-01-29T11:03:28.280Z,62.70
2023-01-29T11:06:11.476Z,76.00
2023-01-29T11:11:36.625Z,47.70
2023-01-29T11:14:12.273Z,55.70
2023-01-29T11:16:46.902Z,72.00
2023-01-29T11:19:15.656Z,25.70
2023-01-29T11:21:53.669Z,34.70
2023-01-29T11:24:25.522Z,53.70
2023-01-29T11:26:57.224Z,40.60
2023-01-29T11:29:40.612Z,48.30
2023-01-29T11:32:14.133Z,21.20
2023-01-29T11:34:59.593Z,30.60
2023-01-29T11:37:35.045Z,1.00
2023-01-29T11:40:41.429Z,7.40
2023-01-29T11:43:31.409Z,1.00
2023-01-29T11:46:03.112Z,2.00
2023-01-29T11:48:42.609Z,1.00
2023-01-29T11:51:21.462Z,1.00
2023-01-29T11:53:53.938Z,1.00
2023-01-29T11:56:31.103Z,1.00
2023-01-29T11:59:00.645Z,1.00
2023-01-29T12:01:35.155Z,1.00
2023-01-29T12:04:13.131Z,1.00
2023-01-29T12:06:45.217Z,1.00
2023-01-29T12:09:20.454Z,1.00
2023-01-29T12:11:54.675Z,1.00
2023-01-29T12:14:33.434Z,3.40
2023-01-29T12:17:05.497Z,1.00
2023-01-29T12:19:42.095Z,15.80
2023-01-29T12:22:17.455Z,15.40
2023-01-29T12:24:51.613Z,40.50
2023-01-29T12:27:26.294Z,99.90
2023-01-29T12:30:01.754Z,99.90
2023-01-29T12:32:51.813Z,99.90
2023-01-29T12:35:25.066Z,99.90
2023-01-29T12:38:00.833Z,99.90
2023-01-29T12:40:35.163Z,99.90
2023-01-29T12:43:12.922Z,99.90
2023-01-29T12:45:42.907Z,99.90
2023-01-29T12:48:18.896Z,99.90
2023-01-29T12:53:27.771Z,99.90
2023-01-29T12:56:00.899Z,99.90
2023-01-29T12:58:31.099Z,99.90
2023-01-29T13:01:08.174Z,99.90
2023-01-29T13:03:48.315Z,99.90
2023-01-29T13:06:18.998Z,99.90
2023-01-29T13:08:51.541Z,99.90
2023-01-29T13:11:24.682Z,99.90
2023-01-29T13:14:02.309Z,99.90
2023-01-29T13:16:43.592Z,99.90
2023-01-29T13:19:23.916Z,99.90
2023-01-29T13:21:55.741Z,99.90
2023-01-29T13:24:26.889Z,99.90
2023-01-29T13:26:55.694Z,99.90
2023-01-29T13:29:31.432Z,99.90
2023-01-29T13:32:01.500Z,99.90
2023-01-29T13:34:32.653Z,99.90
2023-01-29T13:37:04.072Z,99.90
2023-01-29T13:39:35.089Z,99.90
2023-01-29T13:42:15.831Z,99.90
2023-01-29T13:44:53.859Z,99.90
2023-01-29T13:47:26.308Z,99.90
2023-01-29T13:50:09.072Z,99.90
2023-01-29T13:52:43.262Z,99.90
2023-01-29T13:55:31.352Z,99.90
2023-01-29T13:58:01.328Z,99.90
2023-01-29T14:01:01.646Z,99.90
2023-01-29T14:04:05.520Z,99.90
2023-01-29T14:06:48.246Z,99.90
2023-01-29T14:10:02.224Z,99.90
2023-01-29T14:12:35.476Z,99.90
2023-01-29T14:15:19.026Z,99.90
2023-01-29T14:18:21.632Z,99.90
2023-01-29T14:20:57.518Z,99.90
2023-01-29T14:23:44.837Z,99.90
2023-01-29T14:26:32.856Z,99.90
2023-01-29T14:29:05.764Z,99.90
2023-01-29T14:31:41.899Z,98.00
2023-01-29T14:34:22.832Z,89.50
2023-01-29T14:36:57.989Z,83.10
2023-01-29T14:39:35.507Z,53.10
2023-01-29T14:42:19.252Z,30.00
2023-01-29T14:45:12.505Z,30.40
2023-01-29T14:48:05.209Z,19.20
2023-01-29T14:50:49.611Z,17.90
2023-01-29T14:53:40.601Z,15.40
2023-01-29T14:56:17.010Z,7.50
2023-01-29T14:58:47.867Z,1.00
2023-01-29T15:01:25.024Z,1.00
2023-01-29T15:03:56.067Z,1.00
2023-01-29T15:06:33.302Z,1.00
2023-01-29T15:09:12.383Z,1.00
2023-01-29T15:11:53.481Z,1.00
2023-01-29T15:14:31.773Z,1.00
2023-01-29T15:17:20.620Z,1.00
2023-01-29T15:19:50.694Z,1.00
2023-01-29T15:22:22.390Z,1.00
2023-01-29T15:25:08.677Z,1.00
2023-01-29T15:27:37.200Z,1.00
2023-01-29T15:30:08.140Z,1.00
2023-01-29T15:32:38.649Z,1.00
2023-01-29T15:35:10.230Z,1.00
2023-01-29T15:37:38.855Z,1.00
2023-01-29T15:40:21.116Z,1.00
2023-01-29T15:42:51.187Z,1.00
2023-01-29T15:45:30.262Z,1.00
2023-01-29T15:48:05.743Z,1.00
2023-01-29T15:50:37.761Z,1.00
2023-01-29T15:53:10.184Z,1.00
2023-01-29T15:55:41.263Z,1.00
2023-01-29T15:58:16.749Z,1.00
2023-01-29T16:00:51.409Z,1.00
2023-01-29T16:03:23.648Z,1.00
2023-01-29T16:05:53.100Z,1.00
2023-01-29T16:08:23.302Z,1.00
2023-01-29T16:10:56.994Z,1.00
2023-01-29T16:13:27.376Z,1.00
2023-01-29T16:15:58.637Z,1.00
2023-01-29T16:18:30.862Z,1.00
2023-01-29T16:21:02.045Z,1.00
2023-01-29T16:23:38.515Z,11.10
2023-01-29T16:26:15.946Z,11.80
2023-01-29T16:28:45.777Z,1.00
2023-01-29T16:31:16.427Z,5.80
2023-01-29T16:33:49.644Z,26.90
2023-01-29T16:36:21.288Z,54.10
2023-01-29T16:38:51.880Z,80.90
2023-01-29T16:41:32.503Z,99.10
2023-01-29T16:44:04.102Z,99.90
2023-01-29T16:46:37.353Z,99.90
2023-01-29T16:49:44.300Z,99.90
2023-01-29T16:52:23.689Z,99.90
2023-01-29T16:54:52.576Z,99.90
2023-01-29T16:57:25.952Z,99.90
2023-01-29T16:59:57.059Z,99.90
2023-01-29T17:02:28.402Z,99.90
2023-01-29T17:05:00.425Z,99.90
2023-01-29T17:07:29.238Z,99.90
2023-01-29T17:10:00.749Z,99.90
2023-01-29T17:12:32.279Z,99.90
2023-01-29T17:15:02.156Z,99.90
2023-01-29T17:17:31.870Z,99.90
2023-01-29T17:20:03.533Z,99.90
2023-01-29T17:24:59.680Z,99.90
2023-01-29T17:27:31.665Z,99.90
2023-01-29T17:30:00.413Z,99.90
2023-01-29T17:32:43.615Z,99.90
2023-01-29T17:35:14.604Z,99.90
2023-01-29T17:37:44.222Z,99.90
2023-01-29T17:40:23.016Z,99.90
2023-01-29T17:42:52.642Z,99.90
2023-01-29T17:47:49.484Z,99.90
2023-01-29T17:50:22.848Z,99.90
2023-01-29T17:52:53.375Z,99.90
2023-01-29T17:55:21.429Z,99.90
2023-01-29T17:57:49.975Z,99.90
2023-01-29T18:00:22.320Z,99.90
2023-01-29T18:05:19.363Z,99.90
2023-01-29T18:07:51.657Z,99.90
2023-01-29T18:10:23.375Z,99.90
2023-01-29T18:12:51.610Z,99.90
2023-01-29T18:15:21.411Z,99.90
2023-01-29T18:17:52.224Z,99.90
2023-01-29T18:20:23.428Z,99.90
2023-01-29T18:22:52.212Z,99.90
2023-01-29T18:25:21.066Z,99.90
2023-01-29T18:27:49.479Z,99.90
2023-01-29T18:30:19.314Z,99.90
2023-01-29T18:32:50.162Z,99.90
2023-01-29T18:35:19.004Z,99.90
2023-01-29T18:37:49.286Z,99.90
2023-01-29T18:40:21.548Z,99.90
2023-01-29T18:42:49.570Z,99.90
2023-01-29T18:45:18.779Z,99.90
2023-01-29T18:47:49.714Z,99.90
2023-01-29T18:50:18.761Z,99.90
2023-01-29T18:52:47.962Z,99.90
2023-01-29T18:55:16.248Z,99.90
2023-01-29T18:58:24.632Z,99.90
2023-01-29T19:00:34.400Z,99.90
2023-01-29T19:03:03.983Z,99.90
2023-01-29T19:05:34.802Z,99.90
2023-01-29T19:08:05.309Z,99.90
2023-01-29T19:13:06.727Z,99.90
2023-01-29T19:15:35.289Z,99.90
2023-01-29T19:18:04.804Z,99.90
2023-01-29T19:20:32.908Z,99.90
2023-01-29T19:23:01.441Z,99.90
2023-01-29T19:25:29.468Z,99.90
2023-01-29T19:28:00.300Z,99.90
2023-01-29T19:30:28.437Z,99.90
2023-01-29T19:32:56.761Z,99.90
2023-01-29T19:35:26.835Z,99.90
2023-01-29T19:37:54.843Z,99.90
2023-01-29T19:40:24.356Z,99.90
2023-01-29T19:42:58.925Z,99.90
2023-01-29T19:45:49.690Z,99.90
2023-01-29T19:48:20.324Z,99.90
2023-01-29T19:50:54.200Z,99.90
2023-01-29T19:53:22.962Z,99.90
2023-01-29T19:55:59.497Z,99.90
2023-01-29T19:58:28.104Z,99.90
2023-01-29T20:00:57.697Z,99.90
2023-01-29T20:03:25.918Z,99.90
2023-01-29T20:05:55.699Z,99.90
2023-01-29T20:08:24.623Z,99.90
2023-01-29T20:13:21.269Z,99.90
2023-01-29T20:15:50.521Z,99.90
2023-01-29T20:18:20.086Z,99.90
2023-01-29T20:20:49.936Z,99.90
2023-01-29T20:23:35.579Z,99.90
2023-01-29T20:26:06.998Z,99.90
2023-01-29T20:33:34.878Z,99.90
2023-01-29T20:36:07.386Z,99.90
2023-01-29T20:38:37.610Z,99.90
2023-01-29T20:41:09.181Z,99.90
2023-01-29T20:43:41.166Z,99.90
2023-01-29T20:48:39.222Z,99.90
2023-01-29T20:51:13.160Z,99.90
2023-01-29T20:53:46.946Z,99.90
2023-01-29T20:56:17.584Z,99.90
2023-01-29T20:58:47.146Z,99.90
2023-01-29T21:01:18.130Z,99.90
2023-01-29T21:03:46.884Z,99.90
2023-01-29T21:06:15.940Z,99.90
2023-01-29T21:08:45.748Z,99.90
2023-01-29T21:11:14.578Z,99.90
2023-01-29T21:13:47.047Z,99.90
2023-01-29T21:16:15.667Z,99.90
2023-01-29T21:23:41.676Z,99.90
2023-01-29T21:31:18.123Z,99.90
2023-01-29T21:36:19.195Z,99.90
2023-01-29T21:38:48.546Z,99.90
2023-01-29T21:41:40.631Z,99.90
2023-01-29T21:44:11.794Z,99.90
2023-01-29T21:46:42.269Z,99.90
2023-01-29T21:56:37.674Z,99.90
2023-01-29T22:01:38.680Z,99.90
2023-01-29T22:04:08.144Z,99.90
2023-01-29T22:11:37.284Z,99.90
2023-01-29T22:14:06.876Z,99.90
2023-01-29T22:16:35.612Z,99.90
2023-01-29T22:21:35.909Z,99.90
2023-01-29T22:26:32.457Z,99.90
2023-01-29T22:29:01.933Z,99.90
2023-01-29T22:31:30.918Z,99.90
2023-01-29T22:38:57.655Z,99.90
2023-01-29T22:43:55.449Z,99.90
2023-01-29T22:46:25.458Z,99.90
2023-01-29T22:48:53.645Z,99.90
2023-01-29T22:51:21.886Z,99.90
2023-01-29T22:53:51.931Z,99.90
2023-01-29T22:56:21.889Z,99.90
2023-01-29T22:58:52.881Z,99.90
2023-01-29T23:01:21.999Z,99.90
2023-01-29T23:03:52.183Z,99.90
2023-01-29T23:06:22.797Z,99.90
2023-01-29T23:08:51.885Z,99.90
2023-01-29T23:11:21.920Z,99.90
2023-01-29T23:13:53.799Z,99.90
2023-01-29T23:16:26.934Z,99.90
2023-01-29T23:18:58.044Z,99.90
2023-01-29T23:21:27.761Z,99.90
2023-01-29T23:23:58.230Z,99.90
2023-01-29T23:26:44.455Z,99.90
2023-01-29T23:31:44.133Z,99.90
2023-01-29T23:34:14.303Z,99.90
2023-01-29T23:36:43.036Z,99.90
2023-01-29T23:39:14.291Z,99.90
2023-01-29T23:47:11.769Z,99.90
2023-01-29T23:50:06.432Z,99.90
2023-01-29T23:52:35.142Z,99.90
2023-01-29T23:57:34.405Z,99.90
